Terminal Aerodrome Forecast
Issued by NWS

Home | Current Version | Previous Version | Text Only | Print | Product List | Glossary On
Versions: 1 2 3 4 5 6 7 8 9 10 11 12 13 14 15 16 17 18 19 20 21 22 23 24 25 26 27 28
000
FTUS41 KBUF 240300 AAA
TAFIAG
TAF AMD
KIAG 240300Z 2403/2424 00000KT P6SM SKC
     FM241400 14006KT P6SM SCT250
     FM242000 08006KT P6SM BKN250=

USA.gov is the U.S. government's official web portal to all federal, state and local government web resources and services.